Rowe, VA (24646)

8:55 AM EST on March 06, 2015 (GMT -0500)
Oakwood, VA | Change Station
CLOSE
Current Station
Personal Weather Station
Location: Oakwood, VA
Elevation: 1404 ft
Nearby Weather Stations

Elev 1404 ft 37.21 °N, 82.01 °W | Updated 8 minutes ago

Partly Cloudy
Partly Cloudy
18.5 °F
Feels Like 18 °F
N
0.0
Wind Variable Wind from NNW

Today
High -- | Low -- °F
--% Chance of Precip.
Yesterday
High -- | Low -- °F
Precip. -- in
6:52 AM 6:26 PM
Waxing Gibbous, 99% visible
Pressure 30.37 in
Visibility 7.0 miles
Clouds Mostly Cloudy 700 ft
Windchill 18 °F
Dew Point 14 °F
Humidity 84%
Rainfall in
Snow Depth Not available.
UV 1 out of 12
Pollen 3.70 out of 12
Air Quality Not available.
Flu Activity Not available.
METAR KJFZ 061335Z AUTO 00000KT 7SM -SN BKN007 M12/M14 A3037 RMK AO2 T11181145

More Conditions Fewer Conditions

Pressure 30.37 in
Visibility 7.0 miles
Clouds Mostly Cloudy 700 ft
Windchill 18 °F
Dew Point 14 °F
Humidity 84%
Rainfall in
Snow Depth Not available.
UV 1 out of 12
Pollen 3.70 out of 12
Air Quality Not available.
Flu Activity Not available.
METAR KJFZ 061335Z AUTO 00000KT 7SM -SN BKN007 M12/M14 A3037 RMK AO2 T11181145

More Conditions Fewer Conditions

10-Day Weather Forecast

Almanac

Astronomy

Mar. 06, 2015 Rise Set
Actual Time
Civil Twilight
Nautical Twilight
Astronomical Twilight
Moon
Length of Visible Light
Length of Day
Tomorrow will be .
, % of the Moon is Illuminated

Today's Extremes

State Highs State Lows

Community

WunderPhotos

Upload Photos

1,803,266 photos uploaded!

WunderBlogs® & News

Nearby

Air Quality

  Air Quality AQ Index Pollutant
Not available.

Snow Depth

Station Depth Elevation

Earthquake Activity

City Distance Mag. Time & Date
Minimum magnitude displayed is 2.5.

Coastal Water Temperatures

Place Temperature

Nearby Weather Stations